Portada
METAR-TAF:

METAR-TAF

Aeroports :

Bloomington-Normal, Illinois, Estats Units d'Amèrica

latitud: 40-29N, longitud: 088-55W, altitud: 267 m

Observació

L'informe es va fer fa 21 minuts, a les 17:56 UTC
Vent 11 kt del Oest/Sud-Oest
Temperatura 31°C
Humitat 59%
Pressió 1015 hPa
Visibilitat: 16.1 km
Cel clar

METAR: KBMI 111756Z 24011KT 10SM CLR 31/22 A2996 RMK AO2 SLP133 T03110217 10311 20217 58003

Hora: 13:17 (18:17 UTC)

Pronòstic

L'informe es va fer fa 47 minuts, a les 17:30 UTC
Pronòstic vàlid del 11 a les 18 UTC al 12 a les 18 UTC
Vent 9 kt del Oest
Visibilitat: 10 km
Núvols disperses a una alçada de 4500 ft
A partir de les 12 a les 0200 UTC
Vent 8 kt del Oest
Visibilitat: 10 km
Cel ennuvolat a una alçada de 4500 ft, Cumulonimbus.
tempesta a les proximitats
A partir de les 12 a les 0500 UTC
Vent 5 kt del Oest/Nord-Oest
Visibilitat: 10 km
Cel ennuvolat a una alçada de 12000 ft

TAF: KBMI 111730Z 1118/1218 26009KT P6SM SCT045 FM120200 26008KT P6SM VCTS BKN045CB FM120500 30005KT P6SM BKN120

Observacions i pronòstics meteorològics de més de 4000 aeroports (METAR i TAF).

Les estacions disponibles són els punts grocs i vermells al mapa.

Posi el ratolí al punt desitjat per veure el nom de l'estació.

Feu clic per veure les observacions i els pronòstics meteorològics.

Per canviar el mapa: feu clic els botons verds amb una creu de color negre per apropar; al botó verd amb un guió per allunyar la imatge; o en les fletxes verdes per a mapes adjacents.


METAR-TAF: